createdAt,value
2022-10-10T00:00:41.840Z,46.97
2022-10-10T00:06:05.731Z,49.92
2022-10-10T00:11:11.354Z,37.75
2022-10-10T00:16:16.044Z,32.60
2022-10-10T00:21:19.994Z,32.97
2022-10-10T00:26:25.109Z,33.55
2022-10-10T00:31:29.027Z,27.13
2022-10-10T00:36:32.914Z,27.13
2022-10-10T00:41:38.105Z,26.83
2022-10-10T00:46:42.508Z,25.73
2022-10-10T00:51:48.441Z,26.73
2022-10-10T00:56:56.754Z,24.33
2022-10-10T01:02:04.007Z,25.73
2022-10-10T01:07:11.626Z,22.90
2022-10-10T01:12:23.125Z,19.83
2022-10-10T01:17:34.034Z,23.88
2022-10-10T01:22:46.512Z,18.33
2022-10-10T01:27:55.148Z,17.85
2022-10-10T01:33:08.080Z,20.83
2022-10-10T01:38:21.238Z,21.38
2022-10-10T01:43:26.729Z,22.30
2022-10-10T01:48:33.638Z,20.17
2022-10-10T01:53:47.622Z,16.83
2022-10-10T01:59:12.381Z,19.38
2022-10-10T02:04:24.731Z,18.15
2022-10-10T02:09:35.421Z,17.23
2022-10-10T02:14:42.467Z,18.33
2022-10-10T02:19:51.948Z,21.48
2022-10-10T02:24:57.576Z,21.30
2022-10-10T02:30:03.696Z,19.60
2022-10-10T02:35:14.106Z,23.52
2022-10-10T02:40:22.923Z,20.42
2022-10-10T02:45:28.957Z,18.55
2022-10-10T02:50:35.578Z,15.27
2022-10-10T02:55:39.452Z,19.27
2022-10-10T03:00:43.313Z,15.25
2022-10-10T03:05:48.600Z,42.58
2022-10-10T03:10:57.321Z,18.02
2022-10-10T03:16:02.395Z,18.55
2022-10-10T03:21:07.686Z,22.23
2022-10-10T03:26:11.535Z,20.42
2022-10-10T03:31:16.055Z,22.17
2022-10-10T03:36:22.319Z,18.52
2022-10-10T03:41:26.226Z,19.00
2022-10-10T03:46:30.312Z,21.20
2022-10-10T03:51:35.541Z,25.83
2022-10-10T03:56:39.418Z,31.30
2022-10-10T04:01:43.424Z,31.17
2022-10-10T04:06:48.624Z,30.33
2022-10-10T04:11:52.348Z,28.63
2022-10-10T04:16:59.710Z,30.50
2022-10-10T04:22:11.081Z,34.13
2022-10-10T04:27:15.559Z,35.30
2022-10-10T04:32:19.485Z,26.70
2022-10-10T04:37:25.177Z,30.27
2022-10-10T04:42:29.218Z,27.30
2022-10-10T04:47:33.104Z,28.55
2022-10-10T04:52:38.837Z,26.60
2022-10-10T04:57:42.879Z,28.55
2022-10-10T05:02:46.848Z,27.02
2022-10-10T05:07:55.541Z,27.42
2022-10-10T05:12:59.744Z,26.25
2022-10-10T05:18:04.210Z,28.67
2022-10-10T05:23:09.508Z,30.25
2022-10-10T05:28:13.429Z,28.50
2022-10-10T05:33:17.401Z,23.20
2022-10-10T05:38:23.553Z,23.17
2022-10-10T05:43:27.977Z,23.42
2022-10-10T05:48:32.284Z,25.38
2022-10-10T05:53:37.578Z,23.40
2022-10-10T05:58:41.541Z,26.08
2022-10-10T06:03:45.736Z,22.75
2022-10-10T06:08:51.269Z,22.30
2022-10-10T06:13:55.317Z,25.38
2022-10-10T06:18:59.600Z,22.73
2022-10-10T06:24:05.147Z,24.98
2022-10-10T06:34:13.095Z,21.55
2022-10-10T06:39:18.747Z,24.40
2022-10-10T06:49:26.806Z,20.35
2022-10-10T06:54:32.428Z,24.63
2022-10-10T06:59:37.645Z,24.65
2022-10-10T07:04:41.808Z,18.50
2022-10-10T07:09:47.841Z,15.77
2022-10-10T07:19:56.267Z,18.38
2022-10-10T07:25:01.809Z,20.55
2022-10-10T07:30:06.646Z,16.55
2022-10-10T07:35:11.323Z,20.07
2022-10-10T07:40:16.633Z,21.67
2022-10-10T07:45:20.716Z,57.28
2022-10-10T07:50:26.131Z,15.38
2022-10-10T07:55:31.906Z,8.30
2022-10-10T08:00:36.751Z,10.27
2022-10-10T08:05:48.149Z,14.73
2022-10-10T08:10:54.499Z,9.48
2022-10-10T08:15:58.632Z,9.43
2022-10-10T08:21:05.251Z,9.50
2022-10-10T08:26:13.244Z,7.18
2022-10-10T08:31:19.225Z,11.80
2022-10-10T08:36:25.006Z,11.13
2022-10-10T08:46:42.364Z,4.38
2022-10-10T08:51:56.950Z,5.82
2022-10-10T08:57:07.125Z,7.18
2022-10-10T09:02:53.091Z,10.57
2022-10-10T09:08:27.001Z,7.20
2022-10-10T09:13:38.593Z,4.63
2022-10-10T09:19:00.739Z,4.70
2022-10-10T09:24:13.291Z,5.47
2022-10-10T09:29:27.636Z,4.07
2022-10-10T09:34:36.610Z,8.55
2022-10-10T09:39:56.889Z,3.63
2022-10-10T09:45:21.982Z,6.95
2022-10-10T09:50:31.333Z,2.67
2022-10-10T09:55:39.762Z,6.13
2022-10-10T10:00:45.078Z,3.80
2022-10-10T10:05:57.614Z,6.30
2022-10-10T10:11:03.378Z,4.93
2022-10-10T10:16:12.545Z,5.22
2022-10-10T10:21:23.605Z,5.75
2022-10-10T10:26:32.132Z,2.53
2022-10-10T10:31:54.327Z,4.22
2022-10-10T10:37:14.564Z,3.92
2022-10-10T10:42:34.186Z,3.80
2022-10-10T10:47:50.559Z,8.23
2022-10-10T10:53:01.486Z,7.65
2022-10-10T11:05:18.612Z,5.07
2022-10-10T11:09:50.374Z,10.18
2022-10-10T11:15:02.739Z,7.32
2022-10-10T11:20:21.412Z,7.25
2022-10-10T11:25:29.619Z,5.68
2022-10-10T11:30:37.853Z,7.30
2022-10-10T11:35:47.891Z,6.85
2022-10-10T11:40:57.896Z,7.88
2022-10-10T11:46:09.936Z,4.40
2022-10-10T11:51:25.988Z,5.72
2022-10-10T11:56:34.531Z,11.00
2022-10-10T12:01:40.124Z,6.63
2022-10-10T12:06:49.735Z,6.00
2022-10-10T12:11:57.950Z,8.23
2022-10-10T12:17:02.325Z,8.68
2022-10-10T12:22:12.603Z,7.67
2022-10-10T12:27:30.626Z,6.15
2022-10-10T12:32:43.098Z,7.55
2022-10-10T12:38:16.873Z,4.38
2022-10-10T12:43:26.681Z,4.95
2022-10-10T12:48:30.609Z,6.43
2022-10-10T12:53:36.143Z,6.13
2022-10-10T13:03:47.585Z,4.05
2022-10-10T13:08:55.371Z,8.23
2022-10-10T13:13:59.182Z,6.10
2022-10-10T13:19:03.053Z,8.45
2022-10-10T13:24:09.095Z,9.05
2022-10-10T13:29:22.491Z,7.38
2022-10-10T13:34:31.181Z,7.63
2022-10-10T13:39:39.821Z,7.55
2022-10-10T13:44:51.630Z,7.97
2022-10-10T13:49:56.790Z,9.68
2022-10-10T13:55:24.073Z,9.60
2022-10-10T14:00:32.781Z,6.32
2022-10-10T14:05:37.449Z,10.73
2022-10-10T14:10:42.967Z,8.77
2022-10-10T14:15:48.380Z,10.27
2022-10-10T14:20:55.571Z,10.82
2022-10-10T14:26:01.085Z,9.60
2022-10-10T14:36:11.628Z,12.65
2022-10-10T14:41:17.022Z,8.95
2022-10-10T14:46:21.246Z,12.00
2022-10-10T14:51:34.844Z,7.25
2022-10-10T14:57:09.414Z,13.65
2022-10-10T15:02:06.779Z,10.95
2022-10-10T15:07:14.222Z,8.50
2022-10-10T15:12:20.336Z,10.75
2022-10-10T15:17:25.671Z,11.55
2022-10-10T15:22:30.293Z,11.60
2022-10-10T15:27:35.879Z,9.25
2022-10-10T15:32:41.115Z,15.48
2022-10-10T15:37:45.943Z,10.23
2022-10-10T15:42:52.571Z,16.53
2022-10-10T15:47:56.551Z,14.85
2022-10-10T15:53:00.567Z,17.80
2022-10-10T15:58:05.890Z,17.35
2022-10-10T16:03:12.464Z,13.27
2022-10-10T16:08:16.465Z,18.05
2022-10-10T16:13:21.736Z,18.85
2022-10-10T16:18:25.539Z,16.90
2022-10-10T16:23:29.977Z,17.80
2022-10-10T16:28:36.090Z,17.42
2022-10-10T16:33:41.824Z,17.70
2022-10-10T16:38:45.720Z,19.52
2022-10-10T16:43:50.686Z,16.05
2022-10-10T16:49:11.239Z,24.10
2022-10-10T16:54:15.198Z,18.65
2022-10-10T16:59:20.741Z,17.15
2022-10-10T17:04:24.852Z,17.25
2022-10-10T17:09:29.899Z,15.57
2022-10-10T17:14:37.055Z,16.08
2022-10-10T17:24:45.130Z,18.05
2022-10-10T17:29:53.316Z,13.18
2022-10-10T17:34:58.406Z,16.55
2022-10-10T17:40:02.362Z,15.10
2022-10-10T17:45:08.886Z,14.32
2022-10-10T17:50:13.419Z,18.52
2022-10-10T17:55:17.478Z,16.65
2022-10-10T18:00:22.939Z,16.83
2022-10-10T18:05:29.056Z,14.95
2022-10-10T18:10:33.610Z,16.38
2022-10-10T18:15:40.196Z,16.52
2022-10-10T18:20:44.978Z,16.80
2022-10-10T18:25:49.068Z,15.95
2022-10-10T18:30:54.887Z,16.50
2022-10-10T18:41:06.740Z,13.48
2022-10-10T18:46:13.771Z,15.73
2022-10-10T18:51:22.344Z,20.73
2022-10-10T18:56:26.382Z,21.67
2022-10-10T19:01:36.364Z,23.80
2022-10-10T19:06:41.821Z,16.02
2022-10-10T19:11:48.861Z,17.73
2022-10-10T19:16:54.006Z,18.55
2022-10-10T19:21:57.916Z,15.80
2022-10-10T19:27:01.681Z,21.17
2022-10-10T19:32:07.288Z,21.92
2022-10-10T19:37:11.531Z,18.10
2022-10-10T19:42:15.395Z,17.75
2022-10-10T19:47:20.628Z,20.10
2022-10-10T19:52:24.371Z,21.40
2022-10-10T19:57:28.184Z,26.70
2022-10-10T20:02:33.597Z,16.88
2022-10-10T20:07:37.512Z,21.55
2022-10-10T20:12:41.251Z,18.63
2022-10-10T20:17:46.455Z,20.23
2022-10-10T20:22:51.368Z,19.38
2022-10-10T20:27:55.239Z,20.52
2022-10-10T20:33:00.897Z,15.55
2022-10-10T20:38:05.898Z,16.30
2022-10-10T20:43:12.178Z,16.15
2022-10-10T20:48:17.354Z,19.50
2022-10-10T20:53:21.345Z,16.27
2022-10-10T20:58:25.125Z,17.23
2022-10-10T21:03:31.498Z,19.15
2022-10-10T21:08:35.696Z,17.52
2022-10-10T21:13:41.917Z,15.85
2022-10-10T21:18:56.918Z,17.25
2022-10-10T21:29:06.440Z,14.98
2022-10-10T21:34:16.957Z,17.92
2022-10-10T21:39:21.136Z,14.77
2022-10-10T21:44:24.967Z,18.58
2022-10-10T21:49:30.220Z,20.92
2022-10-10T21:54:34.199Z,15.15
2022-10-10T21:59:38.413Z,17.83
2022-10-10T22:04:43.739Z,24.55
2022-10-10T22:09:47.752Z,18.98
2022-10-10T22:14:51.754Z,23.38
2022-10-10T22:19:56.979Z,13.88
2022-10-10T22:25:04.762Z,17.23
2022-10-10T22:30:11.849Z,19.02
2022-10-10T22:35:17.369Z,20.50
2022-10-10T22:40:23.252Z,27.15
2022-10-10T22:45:27.193Z,24.98
2022-10-10T22:50:32.474Z,20.33
2022-10-10T22:55:36.457Z,24.92
2022-10-10T23:00:41.824Z,23.02
2022-10-10T23:05:47.704Z,21.60
2022-10-10T23:10:51.587Z,26.55
2022-10-10T23:15:55.708Z,26.00
2022-10-10T23:21:01.124Z,26.17
2022-10-10T23:26:07.235Z,20.17
2022-10-10T23:31:14.968Z,19.35
2022-10-10T23:36:20.722Z,23.98
2022-10-10T23:41:25.190Z,22.63
2022-10-10T23:46:29.300Z,17.80
2022-10-10T23:51:34.555Z,23.15
2022-10-10T23:56:38.331Z,20.77
